createdAt,value
2022-12-25T00:01:14.139Z,91.85
2022-12-25T00:03:41.183Z,91.95
2022-12-25T00:06:08.262Z,92.00
2022-12-25T00:08:35.975Z,91.93
2022-12-25T00:11:06.138Z,91.92
2022-12-25T00:13:33.117Z,91.96
2022-12-25T00:15:59.943Z,91.94
2022-12-25T00:18:27.368Z,91.89
2022-12-25T00:21:02.296Z,91.84
2022-12-25T00:23:29.627Z,91.82
2022-12-25T00:25:56.806Z,91.75
2022-12-25T00:28:24.768Z,91.73
2022-12-25T00:30:51.962Z,91.65
2022-12-25T00:33:18.889Z,91.60
2022-12-25T00:35:45.729Z,91.43
2022-12-25T00:38:12.663Z,91.53
2022-12-25T00:40:44.155Z,91.53
2022-12-25T00:43:11.232Z,91.61
2022-12-25T00:45:38.050Z,91.53
2022-12-25T00:48:05.331Z,91.53
2022-12-25T00:50:32.741Z,91.34
2022-12-25T00:52:59.573Z,91.16
2022-12-25T00:55:26.409Z,91.25
2022-12-25T00:57:53.332Z,91.18
2022-12-25T01:00:20.231Z,91.07
2022-12-25T01:02:47.282Z,91.05
2022-12-25T01:05:14.189Z,91.14
2022-12-25T01:07:41.016Z,90.89
2022-12-25T01:10:25.045Z,90.93
2022-12-25T01:12:52.618Z,91.05
2022-12-25T01:15:19.510Z,91.11
2022-12-25T01:17:46.499Z,90.79
2022-12-25T01:20:15.431Z,90.67
2022-12-25T01:22:43.243Z,90.60
2022-12-25T01:25:11.354Z,90.67
2022-12-25T01:27:39.516Z,90.47
2022-12-25T01:30:07.033Z,90.52
2022-12-25T01:32:33.887Z,90.44
2022-12-25T01:35:00.746Z,90.42
2022-12-25T01:37:27.675Z,90.55
2022-12-25T01:39:54.449Z,90.44
2022-12-25T01:42:23.755Z,90.50
2022-12-25T01:44:50.544Z,90.39
2022-12-25T01:47:18.412Z,90.37
2022-12-25T01:49:50.244Z,89.98
2022-12-25T01:52:24.412Z,90.01
2022-12-25T01:55:00.754Z,90.17
2022-12-25T01:57:32.721Z,90.15
2022-12-25T02:00:00.688Z,90.18
2022-12-25T02:02:28.972Z,90.10
2022-12-25T02:05:01.140Z,90.08
2022-12-25T02:07:29.672Z,90.02
2022-12-25T02:09:56.455Z,90.00
2022-12-25T02:12:29.208Z,89.89
2022-12-25T02:15:04.909Z,89.78
2022-12-25T02:18:05.862Z,89.98
2022-12-25T02:20:41.769Z,89.92
2022-12-25T02:23:34.718Z,89.82
2022-12-25T02:26:08.195Z,89.95
2022-12-25T02:29:12.781Z,89.98
2022-12-25T02:31:54.218Z,89.93
2022-12-25T02:34:26.082Z,89.99
2022-12-25T02:37:15.579Z,89.97
2022-12-25T02:40:05.348Z,89.96
2022-12-25T02:43:34.756Z,89.89
2022-12-25T02:46:26.802Z,89.93
2022-12-25T02:49:38.230Z,89.87
2022-12-25T02:52:36.029Z,89.89
2022-12-25T02:55:29.945Z,89.84
2022-12-25T02:58:19.213Z,89.91
2022-12-25T03:01:10.551Z,89.63
2022-12-25T03:03:59.279Z,89.91
2022-12-25T03:06:44.264Z,89.76
2022-12-25T03:09:40.413Z,89.55
2022-12-25T03:12:18.679Z,89.50
2022-12-25T03:15:04.324Z,89.51
2022-12-25T03:17:33.399Z,89.60
2022-12-25T03:20:19.045Z,89.54
2022-12-25T03:23:06.461Z,89.67
2022-12-25T03:25:52.412Z,89.40
2022-12-25T03:28:19.288Z,89.31
2022-12-25T03:31:13.283Z,89.22
2022-12-25T03:34:09.230Z,89.21
2022-12-25T03:36:47.753Z,89.09
2022-12-25T03:40:00.142Z,89.27
2022-12-25T03:42:43.193Z,89.10
2022-12-25T03:45:40.851Z,89.05
2022-12-25T03:48:13.350Z,88.93
2022-12-25T03:51:15.903Z,88.94
2022-12-25T03:54:05.820Z,89.00
2022-12-25T03:56:52.191Z,88.88
2022-12-25T03:59:39.075Z,89.04
2022-12-25T04:02:24.467Z,88.95
2022-12-25T04:05:10.114Z,89.05
2022-12-25T04:07:55.483Z,88.99
2022-12-25T04:10:41.177Z,88.97
2022-12-25T04:13:26.569Z,89.02
2022-12-25T04:16:12.939Z,89.03
2022-12-25T04:18:58.905Z,89.06
2022-12-25T04:21:45.132Z,88.83
2022-12-25T04:24:30.981Z,88.87
2022-12-25T04:27:16.243Z,88.85
2022-12-25T04:30:01.565Z,88.85
2022-12-25T04:32:46.859Z,88.88
2022-12-25T04:35:32.503Z,88.88
2022-12-25T04:37:59.308Z,88.96
2022-12-25T04:40:26.133Z,88.93
2022-12-25T04:42:53.336Z,88.81
2022-12-25T04:45:20.141Z,88.86
2022-12-25T04:47:46.947Z,88.87
2022-12-25T04:50:13.807Z,88.92
2022-12-25T04:52:41.297Z,88.83
2022-12-25T04:55:09.482Z,88.90
2022-12-25T04:57:36.418Z,88.87
2022-12-25T05:00:04.420Z,88.81
2022-12-25T05:02:31.948Z,88.91
2022-12-25T05:04:58.880Z,88.86
2022-12-25T05:07:25.722Z,88.73
2022-12-25T05:09:52.728Z,88.80
2022-12-25T05:12:19.679Z,88.83
2022-12-25T05:14:46.922Z,88.68
2022-12-25T05:17:13.959Z,88.86
2022-12-25T05:19:40.716Z,88.86
2022-12-25T05:22:07.629Z,88.78
2022-12-25T05:24:34.369Z,88.82
2022-12-25T05:27:01.154Z,88.78
2022-12-25T05:29:28.033Z,88.83
2022-12-25T05:31:54.890Z,88.73
2022-12-25T05:34:21.706Z,88.78
2022-12-25T05:36:48.497Z,88.78
2022-12-25T05:39:15.317Z,88.83
2022-12-25T05:41:42.302Z,88.83
2022-12-25T05:44:09.124Z,88.75
2022-12-25T05:46:35.966Z,88.75
2022-12-25T05:49:02.832Z,88.78
2022-12-25T05:51:30.900Z,88.76
2022-12-25T05:53:57.707Z,88.74
2022-12-25T05:56:24.550Z,88.63
2022-12-25T05:58:51.442Z,88.70
2022-12-25T06:01:24.463Z,88.75
2022-12-25T06:03:51.427Z,88.80
2022-12-25T06:06:18.478Z,88.80
2022-12-25T06:08:45.828Z,88.83
2022-12-25T06:11:14.247Z,88.80
2022-12-25T06:13:41.256Z,88.80
2022-12-25T06:16:10.697Z,88.78
2022-12-25T06:18:39.654Z,88.83
2022-12-25T06:21:11.462Z,88.92
2022-12-25T06:23:38.882Z,88.83
2022-12-25T06:26:09.148Z,88.87
2022-12-25T06:28:36.501Z,88.90
2022-12-25T06:31:15.298Z,88.95
2022-12-25T06:33:42.778Z,88.96
2022-12-25T06:36:13.121Z,88.87
2022-12-25T06:38:40.230Z,88.93
2022-12-25T06:41:10.562Z,88.94
2022-12-25T06:43:38.468Z,88.88
2022-12-25T06:46:06.719Z,88.89
2022-12-25T06:48:34.663Z,88.82
2022-12-25T06:51:02.960Z,88.92
2022-12-25T06:53:37.095Z,88.83
2022-12-25T06:56:15.798Z,88.91
2022-12-25T06:58:54.271Z,88.92
2022-12-25T07:01:22.511Z,88.94
2022-12-25T07:03:51.962Z,88.96
2022-12-25T07:06:18.966Z,88.95
2022-12-25T07:08:45.970Z,88.92
2022-12-25T07:11:13.094Z,88.93
2022-12-25T07:13:39.923Z,88.89
2022-12-25T07:16:07.850Z,88.83
2022-12-25T07:18:35.377Z,88.89
2022-12-25T07:21:12.891Z,88.87
2022-12-25T07:23:40.231Z,88.89
2022-12-25T07:26:07.823Z,88.92
2022-12-25T07:28:34.846Z,88.94
2022-12-25T07:31:07.324Z,88.94
2022-12-25T07:33:34.395Z,88.96
2022-12-25T07:36:01.284Z,88.95
2022-12-25T07:38:28.364Z,89.05
2022-12-25T07:40:55.153Z,89.05
2022-12-25T07:43:22.218Z,89.02
2022-12-25T07:45:49.133Z,89.05
2022-12-25T07:48:17.051Z,89.10
2022-12-25T07:50:44.030Z,89.10
2022-12-25T07:53:10.910Z,89.13
2022-12-25T07:55:37.689Z,89.28
2022-12-25T07:58:04.565Z,89.40
2022-12-25T08:00:34.263Z,89.44
2022-12-25T08:03:01.237Z,89.54
2022-12-25T08:05:29.228Z,89.62
2022-12-25T08:07:57.883Z,89.66
2022-12-25T08:10:25.471Z,89.78
2022-12-25T08:12:55.329Z,89.77
2022-12-25T08:15:22.170Z,89.76
2022-12-25T08:17:49.069Z,89.92
2022-12-25T08:20:16.017Z,89.94
2022-12-25T08:22:42.837Z,89.90
2022-12-25T08:25:09.971Z,89.92
2022-12-25T08:27:36.742Z,89.95
2022-12-25T08:30:03.999Z,89.90
2022-12-25T08:32:33.679Z,89.92
2022-12-25T08:35:00.472Z,89.99
2022-12-25T08:37:30.180Z,90.02
2022-12-25T08:39:57.026Z,90.00
2022-12-25T08:42:24.109Z,90.08
2022-12-25T08:44:50.903Z,90.05
2022-12-25T08:47:17.747Z,90.09
2022-12-25T08:49:44.634Z,90.06
2022-12-25T08:52:11.627Z,90.17
2022-12-25T08:54:38.462Z,90.21
2022-12-25T08:57:05.601Z,90.20
2022-12-25T08:59:32.463Z,90.15
2022-12-25T09:01:59.339Z,90.15
2022-12-25T09:04:26.265Z,90.15
2022-12-25T09:06:53.041Z,90.12
2022-12-25T09:09:19.878Z,90.09
2022-12-25T09:11:46.650Z,90.11
2022-12-25T09:14:14.310Z,90.09
2022-12-25T09:16:41.180Z,90.12
2022-12-25T09:19:08.060Z,90.08
2022-12-25T09:21:36.768Z,90.13
2022-12-25T09:24:07.001Z,90.00
2022-12-25T09:26:33.871Z,90.05
2022-12-25T09:29:00.820Z,90.06
2022-12-25T09:31:27.616Z,90.10
2022-12-25T09:33:57.949Z,90.08
2022-12-25T09:36:25.808Z,90.08
2022-12-25T09:38:52.819Z,90.04
2022-12-25T09:41:46.484Z,89.98
2022-12-25T09:44:22.681Z,89.98
2022-12-25T09:46:59.382Z,89.97
2022-12-25T09:49:50.988Z,90.00
2022-12-25T09:52:26.155Z,90.03
2022-12-25T09:55:20.604Z,90.03
2022-12-25T09:57:52.534Z,90.05
2022-12-25T10:00:24.386Z,90.08
2022-12-25T10:03:15.101Z,90.17
2022-12-25T10:06:00.741Z,90.28
2022-12-25T10:08:47.724Z,90.31
2022-12-25T10:11:25.339Z,90.31
2022-12-25T10:14:10.693Z,90.33
2022-12-25T10:16:43.303Z,90.34
2022-12-25T10:19:42.283Z,90.23
2022-12-25T10:22:20.815Z,90.33
2022-12-25T10:24:51.369Z,90.25
2022-12-25T10:27:37.156Z,90.24
2022-12-25T10:30:14.621Z,90.25
2022-12-25T10:32:41.882Z,90.25
2022-12-25T10:35:17.292Z,90.37
2022-12-25T10:37:46.534Z,90.40
2022-12-25T10:40:28.991Z,90.40
2022-12-25T10:43:04.407Z,90.41
2022-12-25T10:45:31.270Z,90.47
2022-12-25T10:48:08.087Z,90.52
2022-12-25T10:50:43.285Z,90.50
2022-12-25T10:53:27.945Z,90.60
2022-12-25T10:56:02.829Z,90.60
2022-12-25T10:58:30.169Z,90.65
2022-12-25T11:01:07.564Z,90.56
2022-12-25T11:03:38.815Z,90.58
2022-12-25T11:06:07.489Z,90.63
2022-12-25T11:08:35.073Z,90.69
2022-12-25T11:11:08.114Z,90.62
2022-12-25T11:13:39.302Z,90.57
2022-12-25T11:16:14.304Z,90.59
2022-12-25T11:18:49.989Z,90.62
2022-12-25T11:21:26.437Z,90.57
2022-12-25T11:23:59.493Z,90.55
2022-12-25T11:26:28.036Z,90.53
2022-12-25T11:28:58.214Z,90.60
2022-12-25T11:31:40.548Z,90.67
2022-12-25T11:34:18.297Z,90.79
2022-12-25T11:36:50.710Z,90.85
2022-12-25T11:39:22.210Z,90.79
2022-12-25T11:41:53.918Z,90.73
2022-12-25T11:44:35.570Z,90.76
2022-12-25T11:47:13.533Z,90.82
2022-12-25T11:49:49.836Z,90.83
2022-12-25T11:52:20.028Z,90.79
2022-12-25T11:55:02.552Z,90.76
2022-12-25T11:57:33.002Z,90.72
2022-12-25T12:00:06.837Z,90.85
2022-12-25T12:02:59.095Z,90.79
2022-12-25T12:05:35.406Z,90.80
2022-12-25T12:08:05.577Z,90.80
2022-12-25T12:10:58.409Z,90.91
2022-12-25T12:13:44.036Z,90.93
2022-12-25T12:16:11.207Z,91.03
2022-12-25T12:18:38.230Z,91.16
2022-12-25T12:21:23.247Z,91.15
2022-12-25T12:24:14.934Z,91.26
2022-12-25T12:26:44.499Z,91.25
2022-12-25T12:29:30.887Z,91.40
2022-12-25T12:32:01.934Z,91.37
2022-12-25T12:34:37.580Z,91.37
2022-12-25T12:37:12.207Z,91.39
2022-12-25T12:39:40.587Z,91.35
2022-12-25T12:42:27.581Z,91.28
2022-12-25T12:44:57.118Z,91.22
2022-12-25T12:47:51.442Z,91.21
2022-12-25T12:50:35.611Z,91.21
2022-12-25T12:53:22.633Z,91.22
2022-12-25T12:55:50.752Z,91.16
2022-12-25T12:58:33.683Z,91.17
2022-12-25T13:01:32.683Z,91.18
2022-12-25T13:04:13.599Z,91.24
2022-12-25T13:06:55.912Z,91.22
2022-12-25T13:09:46.950Z,91.26
2022-12-25T13:12:15.278Z,91.32
2022-12-25T13:14:47.181Z,91.27
2022-12-25T13:17:18.969Z,91.34
2022-12-25T13:19:46.524Z,91.28
2022-12-25T13:22:30.682Z,91.31
2022-12-25T13:25:00.693Z,91.27
2022-12-25T13:27:30.490Z,91.28
2022-12-25T13:29:58.612Z,91.20
2022-12-25T13:32:28.895Z,91.21
2022-12-25T13:34:56.123Z,91.14
2022-12-25T13:37:29.050Z,91.10
2022-12-25T13:40:01.224Z,91.07
2022-12-25T13:42:31.411Z,91.09
2022-12-25T13:45:18.409Z,91.17
2022-12-25T13:47:49.877Z,91.26
2022-12-25T13:50:27.067Z,90.99
2022-12-25T13:52:55.970Z,91.07
2022-12-25T13:55:25.691Z,90.98
2022-12-25T13:58:01.143Z,90.98
2022-12-25T14:00:31.152Z,90.84
2022-12-25T14:02:58.886Z,90.92
2022-12-25T14:05:42.312Z,91.02
2022-12-25T14:08:21.960Z,90.91
2022-12-25T14:10:51.254Z,90.79
2022-12-25T14:13:22.381Z,90.79
2022-12-25T14:15:51.602Z,90.71
2022-12-25T14:18:20.625Z,90.41
2022-12-25T14:21:04.679Z,90.41
2022-12-25T14:23:42.037Z,90.39
2022-12-25T14:26:16.526Z,90.38
2022-12-25T14:28:48.453Z,90.04
2022-12-25T14:31:15.948Z,89.90
2022-12-25T14:33:43.340Z,89.66
2022-12-25T14:36:13.280Z,89.63
2022-12-25T14:38:42.558Z,89.73
2022-12-25T14:41:26.023Z,89.12
2022-12-25T14:43:56.135Z,88.93
2022-12-25T14:46:25.127Z,89.00
2022-12-25T14:49:04.217Z,88.67
2022-12-25T14:51:32.839Z,88.78
2022-12-25T14:54:04.119Z,88.80
2022-12-25T14:56:39.270Z,88.71
2022-12-25T14:59:10.139Z,88.54
2022-12-25T15:01:40.420Z,88.29
2022-12-25T15:04:10.125Z,88.50
2022-12-25T15:06:42.546Z,88.41
2022-12-25T15:09:16.711Z,88.54
2022-12-25T15:11:43.515Z,88.65
2022-12-25T15:14:10.321Z,88.47
2022-12-25T15:16:52.031Z,88.28
2022-12-25T15:19:33.337Z,88.60
2022-12-25T15:22:04.274Z,88.58
2022-12-25T15:24:31.194Z,88.51
2022-12-25T15:27:00.321Z,88.49
2022-12-25T15:30:07.272Z,88.22
2022-12-25T15:32:20.291Z,88.31
2022-12-25T15:34:49.776Z,88.51
2022-12-25T15:37:18.083Z,88.44
2022-12-25T15:39:45.804Z,88.52
2022-12-25T15:42:15.145Z,88.55
2022-12-25T15:44:43.066Z,88.56
2022-12-25T15:47:14.465Z,88.25
2022-12-25T15:49:41.741Z,88.21
2022-12-25T15:52:12.443Z,88.17
2022-12-25T15:54:39.334Z,88.46
2022-12-25T15:57:13.411Z,88.21
2022-12-25T15:59:40.297Z,88.17
2022-12-25T16:02:15.794Z,87.89
2022-12-25T16:04:43.154Z,87.86
2022-12-25T16:07:18.091Z,88.37
2022-12-25T16:09:45.225Z,87.94
2022-12-25T16:12:12.097Z,87.69
2022-12-25T16:14:39.016Z,87.53
2022-12-25T16:17:05.886Z,87.78
2022-12-25T16:19:32.937Z,87.48
2022-12-25T16:21:59.787Z,87.19
2022-12-25T16:24:26.626Z,87.02
2022-12-25T16:26:53.480Z,86.74
2022-12-25T16:29:20.375Z,86.67
2022-12-25T16:31:47.259Z,86.58
2022-12-25T16:34:14.126Z,86.45
2022-12-25T16:36:40.924Z,86.39
2022-12-25T16:39:07.796Z,86.82
2022-12-25T16:41:34.614Z,86.59
2022-12-25T16:44:12.013Z,86.45
2022-12-25T16:46:40.119Z,86.39
2022-12-25T16:49:07.073Z,86.38
2022-12-25T16:51:33.878Z,86.27
2022-12-25T16:54:00.663Z,86.28
2022-12-25T16:56:28.631Z,86.06
2022-12-25T16:58:57.798Z,85.97
2022-12-25T17:01:25.184Z,86.09
2022-12-25T17:03:52.401Z,86.25
2022-12-25T17:06:23.162Z,86.12
2022-12-25T17:08:51.995Z,86.18
2022-12-25T17:11:24.284Z,86.35
2022-12-25T17:13:51.324Z,86.59
2022-12-25T17:16:22.961Z,86.39
2022-12-25T17:18:57.020Z,86.39
2022-12-25T17:21:24.682Z,86.30
2022-12-25T17:23:55.324Z,85.88
2022-12-25T17:26:25.153Z,85.99
2022-12-25T17:28:52.378Z,86.12
2022-12-25T17:31:19.630Z,85.96
2022-12-25T17:33:46.480Z,85.46
2022-12-25T17:36:16.880Z,85.77
2022-12-25T17:38:44.796Z,85.68
2022-12-25T17:41:13.153Z,85.16
2022-12-25T17:43:42.128Z,85.00
2022-12-25T17:46:13.070Z,84.64
2022-12-25T17:48:40.342Z,84.76
2022-12-25T17:51:10.415Z,84.65
2022-12-25T17:53:38.947Z,84.71
2022-12-25T17:56:06.385Z,84.71
2022-12-25T17:58:33.421Z,84.52
2022-12-25T18:01:12.463Z,84.68
2022-12-25T18:03:39.610Z,84.29
2022-12-25T18:06:09.241Z,84.48
2022-12-25T18:08:39.546Z,84.28
2022-12-25T18:11:10.104Z,84.58
2022-12-25T18:13:38.388Z,84.56
2022-12-25T18:16:07.407Z,84.97
2022-12-25T18:18:35.141Z,84.66
2022-12-25T18:21:02.564Z,84.70
2022-12-25T18:23:29.532Z,85.13
2022-12-25T18:25:56.984Z,84.82
2022-12-25T18:28:23.916Z,84.98
2022-12-25T18:30:50.697Z,84.97
2022-12-25T18:33:17.560Z,84.57
2022-12-25T18:35:46.677Z,84.84
2022-12-25T18:38:14.216Z,84.81
2022-12-25T18:40:46.659Z,84.55
2022-12-25T18:43:14.624Z,84.58
2022-12-25T18:45:42.638Z,84.72
2022-12-25T18:48:10.655Z,84.45
2022-12-25T18:50:40.934Z,84.71
2022-12-25T18:53:08.192Z,84.71
2022-12-25T18:55:35.669Z,84.55
2022-12-25T18:58:02.669Z,85.24
2022-12-25T19:00:29.811Z,85.05
2022-12-25T19:02:58.540Z,84.42
2022-12-25T19:05:25.916Z,84.24
2022-12-25T19:07:52.989Z,84.36
2022-12-25T19:10:19.843Z,84.62
2022-12-25T19:12:46.799Z,84.61
2022-12-25T19:15:13.636Z,84.84
2022-12-25T19:17:40.515Z,84.85
2022-12-25T19:20:08.169Z,85.30
2022-12-25T19:22:35.085Z,84.68
2022-12-25T19:25:01.919Z,84.71
2022-12-25T19:27:28.777Z,84.52
2022-12-25T19:29:55.622Z,85.09
2022-12-25T19:32:22.541Z,84.41
2022-12-25T19:34:49.330Z,84.01
2022-12-25T19:37:16.243Z,84.02
2022-12-25T19:39:46.777Z,84.04
2022-12-25T19:42:15.611Z,83.84
2022-12-25T19:44:43.236Z,83.95
2022-12-25T19:47:11.232Z,84.00
2022-12-25T19:49:39.882Z,83.78
2022-12-25T19:52:08.046Z,83.87
2022-12-25T19:54:35.039Z,83.71
2022-12-25T19:57:01.879Z,83.71
2022-12-25T19:59:28.662Z,84.03
2022-12-25T20:01:55.731Z,84.37
2022-12-25T20:04:22.715Z,83.86
2022-12-25T20:06:49.555Z,83.73
2022-12-25T20:09:21.212Z,83.78
2022-12-25T20:11:48.794Z,84.10
2022-12-25T20:14:16.573Z,83.69
2022-12-25T20:16:44.325Z,84.28
2022-12-25T20:19:12.778Z,84.29
2022-12-25T20:21:40.139Z,83.63
2022-12-25T20:24:10.124Z,83.40
2022-12-25T20:26:38.924Z,82.97
2022-12-25T20:29:06.757Z,82.58
2022-12-25T20:31:35.286Z,82.49
2022-12-25T20:34:08.528Z,82.94
2022-12-25T20:36:37.753Z,83.16
2022-12-25T20:39:09.685Z,82.97
2022-12-25T20:41:37.743Z,83.43
2022-12-25T20:44:06.681Z,83.08
2022-12-25T20:46:34.026Z,83.24
2022-12-25T20:49:02.118Z,83.03
2022-12-25T20:51:29.103Z,83.13
2022-12-25T20:53:56.391Z,83.19
2022-12-25T20:56:25.105Z,83.26
2022-12-25T20:58:58.454Z,83.39
2022-12-25T21:01:27.482Z,83.18
2022-12-25T21:03:55.406Z,83.16
2022-12-25T21:06:23.475Z,83.51
2022-12-25T21:08:50.236Z,83.32
2022-12-25T21:11:18.151Z,83.52
2022-12-25T21:13:46.214Z,83.27
2022-12-25T21:16:16.035Z,82.55
2022-12-25T21:18:43.047Z,83.39
2022-12-25T21:21:10.799Z,83.37
2022-12-25T21:23:39.858Z,83.60
2022-12-25T21:26:20.074Z,83.47
2022-12-25T21:28:51.372Z,83.78
2022-12-25T21:31:18.807Z,83.99
2022-12-25T21:33:51.721Z,83.62
2022-12-25T21:36:33.935Z,83.81
2022-12-25T21:39:02.305Z,83.41
2022-12-25T21:41:30.670Z,83.65
2022-12-25T21:43:57.955Z,83.39
2022-12-25T21:46:25.910Z,83.52
2022-12-25T21:48:53.018Z,83.53
2022-12-25T21:51:40.958Z,83.32
2022-12-25T21:54:08.640Z,83.52
2022-12-25T21:56:43.132Z,83.26
2022-12-25T21:59:13.107Z,83.23
2022-12-25T22:01:40.010Z,82.97
2022-12-25T22:04:08.751Z,83.45
2022-12-25T22:06:54.216Z,82.93
2022-12-25T22:09:22.343Z,82.94
2022-12-25T22:12:08.043Z,83.45
2022-12-25T22:14:53.729Z,82.71
2022-12-25T22:17:54.917Z,82.98
2022-12-25T22:20:36.610Z,82.90
2022-12-25T22:23:04.039Z,82.62
2022-12-25T22:25:30.856Z,82.91
2022-12-25T22:27:58.189Z,82.63
2022-12-25T22:30:28.719Z,82.90
2022-12-25T22:32:56.102Z,82.71
2022-12-25T22:35:23.452Z,82.42
2022-12-25T22:37:50.569Z,82.79
2022-12-25T22:40:18.997Z,82.51
2022-12-25T22:42:45.930Z,82.50
2022-12-25T22:45:13.239Z,82.18
2022-12-25T22:47:40.431Z,82.53
2022-12-25T22:50:07.913Z,82.96
2022-12-25T22:52:34.819Z,82.62
2022-12-25T22:55:02.498Z,82.58
2022-12-25T22:57:29.438Z,83.12
2022-12-25T22:59:56.303Z,82.45
2022-12-25T23:02:23.593Z,82.48
2022-12-25T23:04:50.762Z,82.31
2022-12-25T23:07:17.740Z,82.45
2022-12-25T23:09:44.638Z,82.35
2022-12-25T23:12:32.104Z,81.88
2022-12-25T23:14:59.191Z,81.81
2022-12-25T23:17:44.255Z,82.43
2022-12-25T23:20:33.133Z,82.10
2022-12-25T23:23:19.467Z,82.24
2022-12-25T23:26:04.749Z,82.09
2022-12-25T23:28:50.061Z,81.91
2022-12-25T23:31:17.230Z,82.04
2022-12-25T23:33:44.214Z,82.02
2022-12-25T23:36:11.076Z,82.29
2022-12-25T23:38:37.890Z,81.82
2022-12-25T23:41:04.852Z,82.55
2022-12-25T23:43:31.694Z,82.54
2022-12-25T23:45:58.791Z,82.36
2022-12-25T23:48:25.589Z,82.57
2022-12-25T23:50:52.450Z,82.33
2022-12-25T23:53:19.264Z,82.53
2022-12-25T23:55:51.558Z,82.26
2022-12-25T23:58:22.028Z,82.45
